Time;durP1;ratioP1;P1;durP2;ratioP2;P2;SDS_P1;SDS_P2;PMS_P1;PMS_P2;Temp;Humidity;BMP_temperature;BMP_pressure;BME280_temperature;BME280_humidity;BME280_pressure;Samples;Min_cycle;Max_cycle;Signal;HPM_P1;HPM_P2
2022/04/08 00:01:15;;;;;;;6.33;1.40;;;;;8.80;94499.00;;;;8416769;28;20892;-64
2022/04/08 00:05:18;;;;;;;8.80;1.90;;;;;8.80;94509.00;;;;8415823;28;20235;-64
2022/04/08 00:09:21;;;;;;;4.40;1.30;;;;;8.90;94490.00;;;;8421469;28;20703;-63
2022/04/08 00:13:24;;;;;;;10.60;1.95;;;;;8.90;94496.00;;;;8415447;28;20223;-62
2022/04/08 00:17:29;;;;;;;5.05;1.60;;;;;8.90;94504.00;;;;8416837;28;20223;-63
2022/04/08 00:21:32;;;;;;;5.33;1.70;;;;;8.90;94516.00;;;;8415905;28;20221;-65
2022/04/08 00:25:35;;;;;;;7.70;1.50;;;;;8.80;94521.00;;;;8416097;28;20673;-65
2022/04/08 00:29:39;;;;;;;4.27;1.43;;;;;8.80;94522.00;;;;8415748;28;20696;-64
2022/04/08 00:33:43;;;;;;;5.80;1.70;;;;;8.90;94520.00;;;;8415486;28;21000;-65
2022/04/08 00:37:47;;;;;;;3.95;1.63;;;;;8.90;94525.00;;;;8414798;28;20250;-65
2022/04/08 00:41:50;;;;;;;1.40;1.13;;;;;9.00;94528.00;;;;8414668;28;20655;-64
2022/04/08 00:45:54;;;;;;;5.53;1.50;;;;;9.00;94543.00;;;;8414701;28;20226;-64
2022/04/08 00:49:59;;;;;;;3.00;1.70;;;;;9.10;94550.00;;;;8412218;28;20230;-64
2022/04/08 00:54:03;;;;;;;11.68;1.80;;;;;9.10;94546.00;;;;8414102;28;20233;-65
2022/04/08 00:58:07;;;;;;;6.30;1.83;;;;;9.10;94566.00;;;;8412423;28;20231;-65
2022/04/08 01:02:10;;;;;;;2.30;1.50;;;;;9.20;94581.00;;;;8415085;28;20243;-64
2022/04/08 01:06:15;;;;;;;6.43;1.63;;;;;9.20;94594.00;;;;8404492;28;20292;-64
2022/04/08 01:10:18;;;;;;;12.13;1.70;;;;;9.20;94600.00;;;;8415517;28;20246;-64
2022/04/08 01:14:21;;;;;;;6.33;1.53;;;;;9.20;94598.00;;;;8412517;28;20223;-63
2022/04/08 01:18:24;;;;;;;2.77;1.40;;;;;9.10;94602.00;;;;8414579;28;20218;-63
2022/04/08 01:22:29;;;;;;;4.33;1.37;;;;;9.10;94621.00;;;;8414128;28;20227;-63
2022/04/08 01:26:34;;;;;;;3.10;1.47;;;;;9.00;94607.00;;;;8414214;28;20223;-63
2022/04/08 01:30:37;;;;;;;11.67;1.67;;;;;9.00;94613.00;;;;8413556;28;20314;-63
2022/04/08 01:34:40;;;;;;;4.67;1.67;;;;;8.90;94618.00;;;;8414034;28;20973;-64
2022/04/08 01:38:43;;;;;;;3.33;1.97;;;;;8.90;94622.00;;;;8410775;28;20230;-64
2022/04/08 01:42:48;;;;;;;6.00;1.90;;;;;8.90;94614.00;;;;8413507;28;20223;-63
2022/04/08 01:46:51;;;;;;;3.63;1.43;;;;;8.80;94630.00;;;;8413755;28;20314;-63
2022/04/08 01:50:54;;;;;;;6.33;1.67;;;;;8.80;94640.00;;;;8414021;28;20219;-62
2022/04/08 01:54:57;;;;;;;5.13;1.83;;;;;8.70;94639.00;;;;8414582;28;20634;-63
2022/04/08 01:59:02;;;;;;;4.43;1.70;;;;;8.70;94625.00;;;;8413568;28;20223;-64
2022/04/08 02:03:05;;;;;;;4.13;1.60;;;;;8.70;94646.00;;;;8409076;28;20243;-64
2022/04/08 02:07:08;;;;;;;13.20;2.93;;;;;8.70;94648.00;;;;8414722;28;20223;-65
2022/04/08 02:11:12;;;;;;;2.43;1.60;;;;;8.70;94655.00;;;;8411986;28;20676;-63
2022/04/08 02:15:16;;;;;;;2.27;1.20;;;;;8.60;94648.00;;;;8413291;28;20223;-64
2022/04/08 02:19:19;;;;;;;7.40;1.67;;;;;8.60;94669.00;;;;8414123;28;20231;-63
2022/04/08 02:23:23;;;;;;;1.67;1.30;;;;;8.60;94658.00;;;;8413082;28;20307;-63
2022/04/08 02:27:28;;;;;;;8.87;1.70;;;;;8.50;94668.00;;;;8412727;28;20241;-63
2022/04/08 02:31:32;;;;;;;7.70;1.43;;;;;8.50;94669.00;;;;8413153;28;20223;-64
2022/04/08 02:35:36;;;;;;;5.43;1.40;;;;;8.40;94670.00;;;;8413116;28;20254;-63
2022/04/08 02:39:39;;;;;;;3.17;1.40;;;;;8.40;94690.00;;;;8412516;28;20215;-63
2022/04/08 02:43:42;;;;;;;3.47;1.55;;;;;8.30;94683.00;;;;8412904;28;20309;-64
2022/04/08 02:47:47;;;;;;;1.57;1.27;;;;;8.30;94688.00;;;;8412448;28;20242;-65
2022/04/08 02:51:50;;;;;;;3.17;1.33;;;;;8.30;94677.00;;;;8410696;28;20231;-63
2022/04/08 02:55:54;;;;;;;4.07;1.40;;;;;8.30;94673.00;;;;8404008;28;20293;-63
2022/04/08 03:00:00;;;;;;;3.57;1.40;;;;;8.30;94699.00;;;;8410249;28;20231;-63
2022/04/08 03:04:06;;;;;;;3.23;1.63;;;;;8.20;94700.00;;;;8388374;22;20230;-64
2022/04/08 03:08:09;;;;;;;5.67;1.70;;;;;8.20;94713.00;;;;8321659;28;20296;-65
2022/04/08 03:12:12;;;;;;;5.90;1.60;;;;;8.10;94716.00;;;;8308592;28;20304;-63
2022/04/08 03:16:15;;;;;;;3.40;1.30;;;;;8.10;94711.00;;;;8322643;28;20237;-64
2022/04/08 03:20:20;;;;;;;5.87;1.20;;;;;8.00;94707.00;;;;8328309;28;20641;-64
2022/04/08 03:24:23;;;;;;;7.37;1.47;;;;;8.00;94721.00;;;;8347077;28;20236;-64
2022/04/08 03:28:27;;;;;;;3.90;1.50;;;;;8.00;94717.00;;;;8330202;28;20307;-65
2022/04/08 03:32:30;;;;;;;1.30;1.20;;;;;8.00;94703.00;;;;8335394;28;20695;-64
2022/04/08 03:36:34;;;;;;;6.17;1.83;;;;;8.00;94714.00;;;;8329400;28;20244;-65
2022/04/08 03:40:37;;;;;;;4.07;1.47;;;;;7.90;94728.00;;;;8332124;28;20221;-65
2022/04/08 03:44:41;;;;;;;7.10;1.63;;;;;7.90;94720.00;;;;8321044;28;20324;-64
2022/04/08 03:48:47;;;;;;;5.73;1.57;;;;;7.90;94712.00;;;;8329314;28;20220;-64
2022/04/08 03:52:51;;;;;;;5.60;1.50;;;;;7.90;94724.00;;;;8333197;28;20229;-63
2022/04/08 03:56:55;;;;;;;5.20;1.73;;;;;7.80;94747.00;;;;8318509;28;20247;-63
2022/04/08 04:00:58;;;;;;;3.87;1.50;;;;;7.80;94734.00;;;;8328140;28;20405;-64
2022/04/08 04:05:01;;;;;;;9.30;1.83;;;;;7.70;94743.00;;;;8352634;28;20232;-65
2022/04/08 04:09:06;;;;;;;7.33;1.60;;;;;7.70;94741.00;;;;8360478;28;20687;-65
2022/04/08 04:13:09;;;;;;;3.10;1.47;;;;;7.60;94759.00;;;;8352816;28;20312;-65
2022/04/08 04:17:13;;;;;;;8.40;2.00;;;;;7.40;94768.00;;;;8350808;28;20236;-65
2022/04/08 04:21:16;;;;;;;8.57;1.83;;;;;7.40;94765.00;;;;8351220;28;20231;-64
2022/04/08 04:25:20;;;;;;;5.20;1.77;;;;;7.30;94772.00;;;;8353117;28;20229;-65
2022/04/08 04:29:24;;;;;;;6.40;1.80;;;;;7.20;94774.00;;;;8349477;28;20228;-63
2022/04/08 04:33:27;;;;;;;10.33;1.70;;;;;7.20;94791.00;;;;8342000;28;20907;-64
2022/04/08 04:37:30;;;;;;;8.10;2.03;;;;;7.10;94789.00;;;;8349675;28;20267;-65
2022/04/08 04:41:35;;;;;;;3.77;1.70;;;;;7.10;94787.00;;;;8349107;28;20224;-65
2022/04/08 04:45:39;;;;;;;4.63;1.63;;;;;7.10;94803.00;;;;8343758;28;20319;-63
2022/04/08 04:49:42;;;;;;;4.97;1.47;;;;;7.10;94807.00;;;;8347187;28;20236;-63
2022/04/08 04:53:48;;;;;;;6.03;1.63;;;;;7.20;94804.00;;;;8347135;28;20311;-64
2022/04/08 04:57:56;;;;;;;3.17;1.70;;;;;7.20;94818.00;;;;8352138;28;20228;-64
2022/04/08 05:01:59;;;;;;;5.30;1.47;;;;;7.20;94813.00;;;;8349479;28;20668;-63
2022/04/08 05:06:02;;;;;;;4.57;1.53;;;;;7.20;94825.00;;;;8349295;28;20228;-64
2022/04/08 05:10:06;;;;;;;6.80;1.70;;;;;7.30;94802.00;;;;8363252;28;20588;-63
2022/04/08 05:14:11;;;;;;;8.70;1.70;;;;;7.30;94815.00;;;;8355027;28;20596;-64
2022/04/08 05:18:14;;;;;;;2.53;1.50;;;;;7.40;94825.00;;;;8348447;28;21035;-63
2022/04/08 05:22:17;;;;;;;11.27;1.60;;;;;7.40;94837.00;;;;8348829;28;20396;-63
2022/04/08 05:26:20;;;;;;;2.13;1.50;;;;;7.50;94839.00;;;;8349693;28;20259;-63
2022/04/08 05:30:25;;;;;;;4.03;1.73;;;;;7.50;94845.00;;;;8345513;28;20239;-64
2022/04/08 05:34:28;;;;;;;5.90;1.80;;;;;7.70;94851.00;;;;8347099;28;20239;-63
2022/04/08 05:38:31;;;;;;;4.67;1.50;;;;;8.00;94835.00;;;;8347819;28;20228;-65
2022/04/08 05:42:34;;;;;;;5.37;1.73;;;;;8.20;94838.00;;;;8348828;28;20299;-64
2022/04/08 05:46:45;;;;;;;12.30;2.47;;;;;8.30;94844.00;;;;8356797;28;20221;-66
2022/04/08 05:50:48;;;;;;;4.87;1.60;;;;;8.40;94849.00;;;;8348698;28;20231;-64
2022/04/08 05:54:51;;;;;;;7.90;2.20;;;;;8.50;94849.00;;;;8360076;28;20231;-64
2022/04/08 05:58:54;;;;;;;6.30;1.50;;;;;8.60;94853.00;;;;8365148;28;20231;-63
2022/04/08 06:02:59;;;;;;;7.50;1.67;;;;;8.70;94863.00;;;;8353603;28;20228;-63
2022/04/08 06:07:02;;;;;;;3.03;1.47;;;;;8.80;94872.00;;;;8358243;28;20267;-67
2022/04/08 06:11:05;;;;;;;8.70;1.87;;;;;8.90;94863.00;;;;8346157;28;20425;-64
2022/04/08 06:15:08;;;;;;;6.60;1.50;;;;;9.00;94877.00;;;;8362577;28;20323;-64
2022/04/08 06:19:13;;;;;;;4.90;1.53;;;;;9.10;94879.00;;;;8363414;28;20230;-64
2022/04/08 06:23:17;;;;;;;6.70;2.00;;;;;9.20;94882.00;;;;8358002;28;20236;-64
2022/04/08 06:27:20;;;;;;;8.63;1.63;;;;;9.20;94887.00;;;;8358744;28;20231;-64
2022/04/08 06:31:24;;;;;;;1.90;1.40;;;;;9.30;94896.00;;;;8361663;28;20779;-63
2022/04/08 06:35:29;;;;;;;7.85;2.05;;;;;9.30;94907.00;;;;8349520;28;20228;-64
2022/04/08 06:39:32;;;;;;;4.53;1.90;;;;;9.20;94898.00;;;;8349070;28;20230;-64
2022/04/08 06:43:35;;;;;;;6.90;1.70;;;;;9.20;94906.00;;;;8355702;28;20243;-64
2022/04/08 06:47:46;;;;;;;8.73;1.80;;;;;9.20;94901.00;;;;8353794;28;20232;-64
2022/04/08 06:51:53;;;;;;;5.80;1.80;;;;;9.30;94915.00;;;;8348084;28;20243;-64
2022/04/08 06:55:56;;;;;;;5.75;1.50;;;;;9.30;94904.00;;;;8354118;28;20633;-65
2022/04/08 06:59:59;;;;;;;7.25;1.70;;;;;9.50;94919.00;;;;8359013;28;20228;-64
2022/04/08 07:04:03;;;;;;;6.78;1.60;;;;;9.70;94900.00;;;;8357378;28;20244;-65
2022/04/08 07:08:08;;;;;;;7.75;1.80;;;;;9.90;94907.00;;;;8367466;28;20232;-63
2022/04/08 07:12:11;;;;;;;5.93;1.92;;;;;10.20;94899.00;;;;8351508;28;20685;-65
2022/04/08 07:16:14;;;;;;;5.83;1.97;;;;;10.40;94914.00;;;;8359328;28;20227;-65
2022/04/08 07:20:18;;;;;;;4.32;1.90;;;;;10.60;94908.00;;;;8363272;28;20236;-63
2022/04/08 07:24:23;;;;;;;5.25;1.63;;;;;11.00;94907.00;;;;8361412;28;20589;-63
2022/04/08 07:28:26;;;;;;;4.35;1.70;;;;;11.00;94909.00;;;;8369676;28;20223;-63
2022/04/08 07:32:29;;;;;;;6.95;1.92;;;;;11.10;94891.00;;;;8337572;28;20695;-65
2022/04/08 07:36:32;;;;;;;5.10;1.80;;;;;11.20;94911.00;;;;8361300;28;20230;-64
2022/04/08 07:40:37;;;;;;;3.40;1.33;;;;;11.40;94900.00;;;;8366662;28;20327;-64
2022/04/08 07:44:40;;;;;;;7.80;2.33;;;;;11.40;94893.00;;;;8368123;28;20231;-63
2022/04/08 07:48:43;;;;;;;7.03;2.10;;;;;11.50;94888.00;;;;8366377;28;20703;-65
2022/04/08 07:52:46;;;;;;;3.53;1.70;;;;;11.60;94889.00;;;;8358065;28;20732;-64
2022/04/08 07:56:51;;;;;;;3.70;1.73;;;;;11.80;94878.00;;;;8368295;28;20232;-65
2022/04/08 08:00:54;;;;;;;5.60;1.50;;;;;11.90;94899.00;;;;8372929;28;20228;-65
2022/04/08 08:04:57;;;;;;;6.15;1.70;;;;;12.00;94892.00;;;;8371758;28;20278;-64
2022/04/08 08:09:02;;;;;;;5.13;1.67;;;;;12.00;94896.00;;;;8362300;28;20326;-65
2022/04/08 08:13:06;;;;;;;3.67;1.58;;;;;12.20;94892.00;;;;8362967;28;20241;-64
2022/04/08 08:17:10;;;;;;;4.03;1.70;;;;;12.30;94880.00;;;;8355242;28;20232;-63
2022/04/08 08:21:13;;;;;;;7.85;1.88;;;;;12.40;94888.00;;;;8370384;28;20634;-65
2022/04/08 08:25:18;;;;;;;5.57;1.90;;;;;12.60;94880.00;;;;8353901;28;20516;-63
2022/04/08 08:29:22;;;;;;;8.85;2.30;;;;;12.80;94880.00;;;;8347154;28;21253;-64
2022/04/08 08:33:26;;;;;;;5.38;1.80;;;;;12.80;94875.00;;;;8353757;28;20314;-64
2022/04/08 08:37:29;;;;;;;5.07;1.65;;;;;12.90;94875.00;;;;8357745;28;20341;-65
2022/04/08 08:41:32;;;;;;;7.00;1.70;;;;;12.80;94865.00;;;;8367210;28;20319;-64
2022/04/08 08:45:37;;;;;;;2.03;1.75;;;;;12.90;94871.00;;;;8356413;28;20242;-65
2022/04/08 08:49:48;;;;;;;10.57;2.25;;;;;12.90;94870.00;;;;8359818;28;20223;-66
2022/04/08 08:53:51;;;;;;;6.15;1.73;;;;;13.00;94871.00;;;;8350046;28;20224;-66
2022/04/08 08:57:55;;;;;;;4.22;1.40;;;;;13.00;94859.00;;;;8372186;28;20244;-64
2022/04/08 09:02:03;;;;;;;1.75;1.40;;;;;12.80;94858.00;;;;8350913;28;20318;-64
2022/04/08 09:06:08;;;;;;;4.07;1.55;;;;;12.70;94861.00;;;;8349886;28;20231;-64
2022/04/08 09:10:11;;;;;;;5.03;1.70;;;;;12.80;94860.00;;;;8356770;28;20311;-62
2022/04/08 09:14:14;;;;;;;3.75;1.65;;;;;12.90;94864.00;;;;8361768;28;20258;-64
2022/04/08 09:18:19;;;;;;;4.57;1.60;;;;;13.00;94870.00;;;;8365457;28;20625;-63
2022/04/08 09:22:26;;;;;;;3.15;1.55;;;;;13.00;94860.00;;;;8360597;28;20241;-63
2022/04/08 09:26:35;;;;;;;6.07;1.50;;;;;12.80;94851.00;;;;8348678;28;20244;-63
2022/04/08 09:30:39;;;;;;;6.20;1.80;;;;;12.60;94847.00;;;;8348855;28;20234;-65
2022/04/08 09:34:44;;;;;;;4.00;1.70;;;;;12.60;94840.00;;;;8347054;28;20223;-64
2022/04/08 09:38:50;;;;;;;6.00;1.80;;;;;12.40;94844.00;;;;8356177;28;20235;-64
2022/04/08 09:42:54;;;;;;;4.63;1.73;;;;;12.20;94840.00;;;;8356919;28;20609;-63
2022/04/08 09:46:57;;;;;;;6.75;1.67;;;;;12.00;94836.00;;;;8352608;28;20239;-64
2022/04/08 09:51:02;;;;;;;5.20;1.52;;;;;12.10;94836.00;;;;8363886;28;20223;-63
2022/04/08 09:55:07;;;;;;;3.17;1.77;;;;;11.90;94829.00;;;;8346053;28;20237;-63
2022/04/08 09:59:12;;;;;;;2.95;1.50;;;;;11.30;94831.00;;;;8353017;28;20323;-62
2022/04/08 10:03:17;;;;;;;3.08;1.40;;;;;11.00;94825.00;;;;8350444;28;20241;-62
2022/04/08 10:07:23;;;;;;;3.60;1.50;;;;;10.90;94815.00;;;;8354349;28;20260;-62
2022/04/08 10:11:35;;;;;;;6.45;1.70;;;;;10.80;94804.00;;;;8350544;28;20215;-62
2022/04/08 10:15:41;;;;;;;3.08;1.50;;;;;10.90;94796.00;;;;8347868;28;20224;-62
2022/04/08 10:19:44;;;;;;;5.35;1.63;;;;;10.50;94797.00;;;;8345174;28;20581;-63
2022/04/08 10:23:56;;;;;;;2.28;1.40;;;;;10.30;94800.00;;;;8347798;28;20299;-63
2022/04/08 10:28:00;;;;;;;2.47;1.40;;;;;10.30;94794.00;;;;8343729;28;20240;-64
2022/04/08 10:32:05;;;;;;;2.35;1.58;;;;;10.50;94779.00;;;;8346493;28;20307;-64
2022/04/08 10:36:08;;;;;;;4.53;1.83;;;;;10.70;94779.00;;;;8346541;28;20242;-63
2022/04/08 10:40:13;;;;;;;1.65;1.55;;;;;10.30;94765.00;;;;8343224;28;20328;-64
2022/04/08 10:44:17;;;;;;;5.38;1.70;;;;;9.90;94743.00;;;;8347393;28;20261;-63
2022/04/08 10:48:32;;;;;;;3.63;1.60;;;;;9.50;94742.00;;;;8348920;28;20229;-62
2022/04/08 10:52:41;;;;;;;5.10;1.85;;;;;9.50;94728.00;;;;8347478;28;20217;-63
2022/04/08 10:56:56;;;;;;;6.75;1.80;;;;;9.60;94719.00;;;;8346175;28;20412;-62
2022/04/08 11:00:59;;;;;;;3.20;1.80;;;;;9.80;94717.00;;;;8346253;28;20225;-63
2022/04/08 11:10:34;;;;;;;2.30;1.55;;;;;9.60;94676.00;;;;8359036;28;20245;-62
2022/04/08 11:14:38;;;;;;;2.65;1.63;;;;;9.70;94669.00;;;;8360711;28;20240;-62
2022/04/08 11:19:15;;;;;;;3.87;2.03;;;;;9.60;94659.00;;;;8360909;28;20220;-62
2022/04/08 11:23:56;;;;;;;4.82;2.00;;;;;9.50;94647.00;;;;8360575;28;20240;-62
2022/04/08 11:28:33;;;;;;;1.90;1.80;;;;;9.40;94648.00;;;;8360431;28;20228;-61
2022/04/08 11:33:35;;;;;;;1.90;1.58;;;;;9.20;94630.00;;;;8359702;28;20270;-61
2022/04/08 11:38:13;;;;;;;2.23;1.90;;;;;9.20;94621.00;;;;8360482;28;20233;-61
2022/04/08 11:42:50;;;;;;;2.37;1.80;;;;;9.10;94619.00;;;;8362247;28;20305;-65
2022/04/08 11:47:31;;;;;;;5.45;1.60;;;;;9.30;94609.00;;;;8366114;28;20327;-65
2022/04/08 11:52:04;;;;;;;3.60;1.90;;;;;9.70;94594.00;;;;8365464;28;20206;-63
2022/04/08 11:56:07;;;;;;;3.45;1.83;;;;;9.60;94578.00;;;;8365865;28;20303;-62
2022/04/08 12:00:12;;;;;;;1.77;1.67;;;;;9.70;94569.00;;;;8365247;28;20231;-64
2022/04/08 12:04:19;;;;;;;4.20;1.70;;;;;9.80;94567.00;;;;8365521;28;20234;-64
2022/04/08 12:08:52;;;;;;;1.52;1.45;;;;;10.00;94556.00;;;;8362608;28;20218;-65
2022/04/08 12:13:26;;;;;;;4.20;1.60;;;;;9.70;94548.00;;;;8365594;28;20650;-64
2022/04/08 12:17:59;;;;;;;3.47;1.60;;;;;9.50;94532.00;;;;8364492;28;20270;-66
2022/04/08 12:22:36;;;;;;;6.50;2.00;;;;;9.60;94522.00;;;;8365184;28;20212;-64
2022/04/08 12:27:17;;;;;;;2.70;1.60;;;;;9.70;94511.00;;;;8364268;28;20236;-65
2022/04/08 12:31:54;;;;;;;3.70;1.77;;;;;9.50;94494.00;;;;8364537;28;20221;-65
2022/04/08 12:36:26;;;;;;;5.38;2.03;;;;;9.40;94487.00;;;;8364154;28;20274;-64
2022/04/08 12:41:03;;;;;;;5.05;2.00;;;;;9.20;94477.00;;;;8364168;28;20555;-67
2022/04/08 12:45:41;;;;;;;2.53;2.08;;;;;9.20;94473.00;;;;8363899;28;20296;-65
2022/04/08 12:50:18;;;;;;;2.63;2.42;;;;;8.90;94459.00;;;;8363693;28;20270;-66
2022/04/08 12:54:55;;;;;;;4.13;2.42;;;;;8.80;94449.00;;;;8363564;28;20217;-66
2022/04/08 12:59:32;;;;;;;3.53;2.60;;;;;8.80;94434.00;;;;8364221;28;20698;-66
2022/04/08 13:09:08;;;;;;;3.67;2.90;;;;;8.90;94416.00;;;;8363282;28;20254;-67
2022/04/08 13:13:42;;;;;;;3.20;2.93;;;;;8.90;94399.00;;;;8363459;28;20301;-66
2022/04/08 13:18:19;;;;;;;7.03;3.30;;;;;9.00;94390.00;;;;8363601;28;20311;-65
2022/04/08 13:22:22;;;;;;;3.80;3.50;;;;;9.10;94380.00;;;;8363097;28;20243;-66
2022/04/08 13:26:27;;;;;;;4.03;3.28;;;;;9.10;94375.00;;;;8363302;28;20307;-66
2022/04/08 13:31:04;;;;;;;4.03;3.00;;;;;9.00;94359.00;;;;8363155;28;20663;-66
2022/04/08 13:35:08;;;;;;;2.77;2.50;;;;;9.00;94354.00;;;;8362273;28;20342;-69
2022/04/08 13:39:45;;;;;;;6.33;3.40;;;;;9.00;94345.00;;;;8362549;28;20251;-68
2022/04/08 13:44:24;;;;;;;2.90;2.70;;;;;8.70;94332.00;;;;8362840;28;20213;-67
2022/04/08 13:48:58;;;;;;;5.30;3.20;;;;;8.40;94317.00;;;;8362155;28;20225;-67
2022/04/08 13:53:01;;;;;;;5.07;2.90;;;;;8.30;94314.00;;;;8361705;28;20224;-68
2022/04/08 13:57:38;;;;;;;17.70;5.73;;;;;8.20;94303.00;;;;8361376;28;20547;-69
2022/04/08 14:01:42;;;;;;;4.93;2.60;;;;;8.00;94301.00;;;;8358770;28;20324;-67
2022/04/08 14:06:16;;;;;;;7.63;3.03;;;;;8.00;94293.00;;;;8361233;28;20641;-66
2022/04/08 14:10:53;;;;;;;4.03;2.93;;;;;7.90;94286.00;;;;8360995;28;20612;-68
2022/04/08 14:15:30;;;;;;;3.13;2.83;;;;;7.80;94293.00;;;;8362007;28;20315;-68
2022/04/08 14:19:35;;;;;;;4.83;3.03;;;;;7.70;94278.00;;;;8359864;28;20315;-67
2022/04/08 14:24:09;;;;;;;8.50;4.90;;;;;7.70;94271.00;;;;8361182;28;20327;-67
2022/04/08 14:28:46;;;;;;;2.73;2.47;;;;;7.50;94261.00;;;;8360858;28;20311;-68
2022/04/08 14:33:23;;;;;;;4.53;3.30;;;;;7.50;94252.00;;;;8361118;28;20630;-67
2022/04/08 14:38:01;;;;;;;5.53;3.27;;;;;7.40;94261.00;;;;8360471;28;20232;-68
2022/04/08 14:42:35;;;;;;;4.63;2.67;;;;;7.40;94263.00;;;;8359819;28;20244;-69
2022/04/08 14:46:38;;;;;;;2.73;2.47;;;;;7.40;94262.00;;;;8360343;28;20232;-68
2022/04/08 14:50:41;;;;;;;2.77;2.53;;;;;7.40;94247.00;;;;8360645;28;20239;-68
2022/04/08 14:54:46;;;;;;;4.33;3.17;;;;;7.40;94234.00;;;;8360092;28;20231;-68
2022/04/08 14:59:20;;;;;;;5.67;2.97;;;;;7.40;94255.00;;;;8360960;28;20248;-68
2022/04/08 15:08:55;;;;;;;5.27;3.43;;;;;7.40;94250.00;;;;8359716;28;20263;-68
2022/04/08 15:13:33;;;;;;;4.53;3.50;;;;;7.40;94229.00;;;;8360028;28;20217;-68
2022/04/08 15:17:37;;;;;;;6.80;3.27;;;;;7.40;94214.00;;;;8362905;28;20270;-66
2022/04/08 15:22:11;;;;;;;3.70;2.50;;;;;7.50;94221.00;;;;8366376;28;20220;-67
2022/04/08 15:26:34;;;;;;;3.60;2.70;;;;;7.60;94236.00;;;;8365855;28;20278;-67
2022/04/08 15:30:37;;;;;;;14.73;8.27;;;;;7.60;94305.00;;;;8366623;28;20224;-66
2022/04/08 15:34:42;;;;;;;2.80;2.60;;;;;7.60;94275.00;;;;8365574;28;20310;-69
2022/04/08 15:39:18;;;;;;;2.80;2.47;;;;;7.70;94274.00;;;;8359515;28;20303;-67
2022/04/08 15:43:52;;;;;;;5.40;3.10;;;;;7.60;94262.00;;;;8361698;28;20303;-67
2022/04/08 15:48:29;;;;;;;20.57;16.07;;;;;7.60;94245.00;;;;8364860;28;20324;-68
2022/04/08 15:53:05;;;;;;;5.73;2.70;;;;;7.70;94220.00;;;;8364157;28;20316;-67
2022/04/08 15:57:44;;;;;;;8.03;4.20;;;;;7.70;94202.00;;;;8364497;28;20216;-67
2022/04/08 16:01:47;;;;;;;7.40;4.20;;;;;7.70;94201.00;;;;8364138;28;20688;-68
2022/04/08 16:06:26;;;;;;;14.73;7.87;;;;;7.80;94191.00;;;;8363887;28;20289;-65
2022/04/08 16:11:01;;;;;;;119.30;59.93;;;;;7.90;94183.00;;;;8363708;28;20617;-65
2022/04/08 16:15:40;;;;;;;51.73;30.03;;;;;8.00;94172.00;;;;8364139;28;20262;-68
2022/04/08 16:20:12;;;;;;;137.30;77.23;;;;;8.00;94167.00;;;;8364022;28;20286;-65
2022/04/08 16:24:50;;;;;;;33.10;20.73;;;;;8.10;94170.00;;;;8363943;28;20633;-68
2022/04/08 16:29:25;;;;;;;135.60;82.83;;;;;8.10;94170.00;;;;8362605;28;20315;-69
2022/04/08 16:34:03;;;;;;;190.07;94.80;;;;;8.10;94162.00;;;;8362910;28;20208;-69
2022/04/08 16:38:39;;;;;;;19.30;11.73;;;;;8.20;94159.00;;;;8364293;28;20251;-69
2022/04/08 16:42:45;;;;;;;301.80;200.17;;;;;8.20;94145.00;;;;8362957;28;20602;-68
2022/04/08 16:46:48;;;;;;;228.07;155.60;;;;;8.20;94134.00;;;;8363504;28;20296;-69
2022/04/08 16:51:22;;;;;;;424.13;298.17;;;;;8.40;94144.00;;;;8363486;28;20224;-69
2022/04/08 16:55:59;;;;;;;333.40;237.73;;;;;8.50;94138.00;;;;8362604;28;20311;-65
2022/04/08 17:00:38;;;;;;;512.73;313.73;;;;;8.70;94122.00;;;;8359961;28;20582;-66
2022/04/08 17:04:41;;;;;;;183.90;108.37;;;;;8.80;94115.00;;;;8362949;28;20296;-66
2022/04/08 17:09:18;;;;;;;820.10;357.30;;;;;8.80;94122.00;;;;8361876;28;20304;-66
2022/04/08 17:13:21;;;;;;;962.40;374.70;;;;;8.80;94114.00;;;;8361491;28;20324;-66
2022/04/08 17:17:58;;;;;;;1999.90;818.13;;;;;8.70;94098.00;;;;8363023;28;20208;-65
2022/04/08 17:22:31;;;;;;;1201.80;530.93;;;;;8.50;94098.00;;;;8362377;28;20311;-65
2022/04/08 17:26:35;;;;;;;78.63;65.10;;;;;8.40;94088.00;;;;8361706;28;20295;-64
2022/04/08 17:30:38;;;;;;;25.53;16.20;;;;;8.30;94088.00;;;;8362715;28;20316;-63
2022/04/08 17:35:16;;;;;;;15.57;12.83;;;;;8.10;94082.00;;;;8358369;28;20618;-64
2022/04/08 17:39:51;;;;;;;13.20;9.20;;;;;8.00;94087.00;;;;8360719;28;20308;-63
2022/04/08 17:44:28;;;;;;;9.40;6.33;;;;;8.00;94085.00;;;;8361830;28;20307;-63
2022/04/08 17:49:03;;;;;;;46.53;32.43;;;;;8.20;94096.00;;;;8361533;28;20229;-64
2022/04/08 17:53:39;;;;;;;23.23;14.27;;;;;8.40;94116.00;;;;8361640;28;20299;-63
2022/04/08 17:58:18;;;;;;;48.43;30.67;;;;;8.70;94131.00;;;;8361100;28;20660;-64
2022/04/08 18:02:52;;;;;;;4.23;3.17;;;;;8.80;94149.00;;;;8361663;28;20228;-65
2022/04/08 18:07:28;;;;;;;5.13;2.87;;;;;9.00;94178.00;;;;8360868;28;20343;-65
2022/04/08 18:12:03;;;;;;;3.00;2.43;;;;;9.10;94178.00;;;;8351104;28;20216;-65
2022/04/08 18:16:42;;;;;;;61.40;15.90;;;;;9.10;94178.00;;;;8359753;28;20216;-68
2022/04/08 18:21:16;;;;;;;6.33;4.53;;;;;9.20;94228.00;;;;8358057;28;20227;-67
2022/04/08 18:25:53;;;;;;;10.63;7.03;;;;;9.30;94287.00;;;;8359376;28;20654;-67
2022/04/08 18:30:31;;;;;;;4.90;3.93;;;;;9.20;94295.00;;;;8360194;28;20307;-69
2022/04/08 18:35:09;;;;;;;2.30;1.20;;;;;8.90;94287.00;;;;8360236;28;20604;-67
2022/04/08 18:39:43;;;;;;;4.30;2.47;;;;;8.70;94306.00;;;;8360337;28;20224;-67
2022/04/08 18:44:23;;;;;;;1.30;1.20;;;;;8.50;94311.00;;;;8360072;28;20299;-67
2022/04/08 18:48:59;;;;;;;1.20;1.20;;;;;8.40;94275.00;;;;8356974;28;20216;-68
2022/04/08 18:53:34;;;;;;;3.83;2.20;;;;;8.30;94220.00;;;;8361611;28;20242;-68
2022/04/08 18:58:08;;;;;;;0.93;0.93;;;;;8.30;94220.00;;;;8367658;28;20216;-67
2022/04/08 19:02:45;;;;;;;3.43;3.10;;;;;8.20;94225.00;;;;8366901;28;20686;-67
2022/04/08 19:07:18;;;;;;;1.27;0.93;;;;;8.00;94212.00;;;;8366023;28;20296;-68
2022/04/08 19:11:57;;;;;;;3.07;2.10;;;;;7.90;94236.00;;;;8366708;28;20223;-66
2022/04/08 19:16:00;;;;;;;1.40;1.30;;;;;7.90;94250.00;;;;8366615;28;20232;-66
2022/04/08 19:20:04;;;;;;;1.03;1.00;;;;;7.80;94236.00;;;;8366523;28;20220;-65
2022/04/08 19:24:39;;;;;;;1.03;1.03;;;;;7.70;94222.00;;;;8367018;28;20220;-66
2022/04/08 19:28:43;;;;;;;1.10;1.10;;;;;7.70;94229.00;;;;8365714;28;20307;-65
2022/04/08 19:32:46;;;;;;;1.53;1.10;;;;;7.70;94232.00;;;;8366039;28;20731;-65
2022/04/08 19:36:50;;;;;;;1.10;1.10;;;;;7.60;94216.00;;;;8366104;28;20299;-65
2022/04/08 19:41:24;;;;;;;1.00;1.00;;;;;7.60;94229.00;;;;8365647;28;20300;-65
2022/04/08 19:45:28;;;;;;;1.00;0.87;;;;;7.70;94228.00;;;;8364870;28;20616;-64
2022/04/08 19:49:33;;;;;;;1.17;0.90;;;;;7.70;94212.00;;;;8366254;28;20229;-64
2022/04/08 19:53:36;;;;;;;1.00;0.90;;;;;7.70;94192.00;;;;8364915;28;20240;-64
2022/04/08 19:57:39;;;;;;;0.87;0.87;;;;;7.70;94223.00;;;;8365474;28;20227;-64
2022/04/08 20:02:18;;;;;;;0.90;0.90;;;;;7.70;94219.00;;;;8365174;28;20303;-64
2022/04/08 20:11:54;;;;;;;1.90;1.10;;;;;7.70;94250.00;;;;8364878;28;20572;-65
2022/04/08 20:16:28;;;;;;;1.17;1.10;;;;;7.70;94233.00;;;;8365502;28;20626;-65
2022/04/08 20:20:31;;;;;;;1.10;1.10;;;;;7.70;94219.00;;;;8364372;28;20212;-67
2022/04/08 20:25:09;;;;;;;2.00;1.30;;;;;7.70;94187.00;;;;8365047;28;20662;-67
2022/04/08 20:29:13;;;;;;;1.00;1.00;;;;;7.70;94151.00;;;;8364329;28;20625;-67
2022/04/08 20:33:48;;;;;;;1.27;1.00;;;;;7.70;94159.00;;;;8364243;28;20285;-67
2022/04/08 20:37:54;;;;;;;2.60;1.27;;;;;7.60;94158.00;;;;8363883;28;20225;-66
2022/04/08 20:42:25;;;;;;;1.50;1.40;;;;;7.60;94127.00;;;;8364791;28;20286;-65
2022/04/08 20:46:30;;;;;;;10.50;3.93;;;;;7.70;94120.00;;;;8363629;28;20217;-65
2022/04/08 20:51:05;;;;;;;2.60;1.23;;;;;7.70;94113.00;;;;8364084;28;20228;-65
2022/04/08 20:55:10;;;;;;;1.20;1.10;;;;;7.60;94094.00;;;;8363640;28;20224;-65
2022/04/08 20:59:43;;;;;;;2.33;1.10;;;;;7.50;94068.00;;;;8363697;28;20710;-66
2022/04/08 21:03:48;;;;;;;1.80;1.23;;;;;7.50;94068.00;;;;8362671;28;20279;-65
2022/04/08 21:07:51;;;;;;;1.63;1.53;;;;;7.30;94061.00;;;;8363963;28;20367;-65
2022/04/08 21:11:54;;;;;;;2.47;1.33;;;;;7.30;94058.00;;;;8363121;28;20231;-65
2022/04/08 21:16:28;;;;;;;1.30;1.20;;;;;7.20;94031.00;;;;8362274;28;20324;-65
2022/04/08 21:20:33;;;;;;;1.30;1.20;;;;;7.10;94007.00;;;;8363023;28;20232;-65
2022/04/08 21:25:08;;;;;;;1.30;1.20;;;;;7.00;94003.00;;;;8362426;28;20227;-65
2022/04/08 21:29:11;;;;;;;2.83;1.13;;;;;7.00;94000.00;;;;8362233;28;20212;-65
2022/04/08 21:33:48;;;;;;;1.10;1.10;;;;;7.00;93971.00;;;;8363191;28;20319;-65
2022/04/08 21:37:52;;;;;;;2.53;1.20;;;;;7.20;93978.00;;;;8361992;28;20217;-65
2022/04/08 21:42:26;;;;;;;1.10;1.10;;;;;7.30;93973.00;;;;8362221;28;20548;-64